Time;durP1;ratioP1;P1;durP2;ratioP2;P2;SDS_P1;SDS_P2;PMS_P1;PMS_P2;Temp;Humidity;BMP_temperature;BMP_pressure;BME280_temperature;BME280_humidity;BME280_pressure;Samples;Min_cycle;Max_cycle;Signal;HPM_P1;HPM_P2
2022/04/09 00:00:00;;;;;;;0.20;0.20;;;;;;;;;;1869660;76;26755;-46
2022/04/09 00:02:28;;;;;;;0.20;0.10;;;;;;;;;;1860616;76;26686;-44
2022/04/09 00:04:55;;;;;;;0.10;0.10;;;;;;;;;;1867589;75;26304;-46
2022/04/09 00:07:22;;;;;;;0.75;0.37;;;;;;;;;;1872703;76;26226;-46
2022/04/09 00:09:49;;;;;;;0.10;0.10;;;;;;;;;;1859971;75;26309;-42
2022/04/09 00:12:17;;;;;;;0.30;0.20;;;;;;;;;;1864564;76;26222;-49
2022/04/09 00:14:44;;;;;;;0.13;0.10;;;;;;;;;;1872264;76;26242;-47
2022/04/09 00:17:11;;;;;;;0.20;0.20;;;;;;;;;;1852080;76;26276;-49
2022/04/09 00:19:39;;;;;;;0.95;0.45;;;;;;;;;;1850215;76;26805;-49
2022/04/09 00:22:06;;;;;;;0.23;0.23;;;;;;;;;;1873869;76;26253;-43
2022/04/09 00:24:34;;;;;;;1.07;0.28;;;;;;;;;;1873061;76;26217;-44
2022/04/09 00:27:02;;;;;;;0.20;0.20;;;;;;;;;;1869263;76;26583;-46
2022/04/09 00:29:29;;;;;;;0.10;0.10;;;;;;;;;;1866045;74;26206;-47
2022/04/09 00:31:56;;;;;;;1.00;0.20;;;;;;;;;;1873612;76;26264;-47
2022/04/09 00:34:24;;;;;;;0.20;0.20;;;;;;;;;;1845937;75;26314;-43
2022/04/09 00:36:51;;;;;;;1.20;0.30;;;;;;;;;;1859730;76;26215;-45
2022/04/09 00:39:18;;;;;;;0.20;0.20;;;;;;;;;;1865182;76;26228;-53
2022/04/09 00:41:49;;;;;;;0.20;0.20;;;;;;;;;;1846459;76;26237;-42
2022/04/09 00:44:17;;;;;;;0.13;0.13;;;;;;;;;;1862422;75;26320;-45
2022/04/09 00:46:45;;;;;;;0.40;0.40;;;;;;;;;;1869108;76;26183;-48
2022/04/09 00:49:13;;;;;;;0.20;0.20;;;;;;;;;;1868352;75;26233;-45
2022/04/09 00:51:41;;;;;;;0.20;0.20;;;;;;;;;;1864476;76;26246;-49
2022/04/09 00:54:09;;;;;;;0.20;0.20;;;;;;;;;;1868073;76;26289;-43
2022/04/09 00:56:37;;;;;;;0.20;0.20;;;;;;;;;;1863939;76;26670;-47
2022/04/09 00:59:06;;;;;;;0.10;0.10;;;;;;;;;;1860145;75;26279;-46
2022/04/09 01:01:37;;;;;;;0.20;0.20;;;;;;;;;;1873734;76;26646;-46
2022/04/09 01:04:09;;;;;;;0.20;0.20;;;;;;;;;;1860916;76;26259;-48
2022/04/09 01:06:36;;;;;;;0.13;0.13;;;;;;;;;;1854342;76;26224;-43
2022/04/09 01:09:04;;;;;;;0.23;0.23;;;;;;;;;;1856409;76;26354;-45
2022/04/09 01:11:32;;;;;;;0.20;0.20;;;;;;;;;;1858789;76;26248;-46
2022/04/09 01:14:00;;;;;;;0.20;0.20;;;;;;;;;;1869157;76;26185;-49
2022/04/09 01:16:29;;;;;;;0.20;0.20;;;;;;;;;;1867018;76;26230;-42
2022/04/09 01:18:56;;;;;;;0.10;0.10;;;;;;;;;;1859433;76;26252;-48
2022/04/09 01:21:25;;;;;;;0.20;0.20;;;;;;;;;;1870193;76;26320;-44
2022/04/09 01:23:53;;;;;;;0.13;0.13;;;;;;;;;;1883521;75;26289;-46
2022/04/09 01:26:21;;;;;;;0.10;0.10;;;;;;;;;;1861159;76;26222;-49
2022/04/09 01:28:49;;;;;;;1.92;0.20;;;;;;;;;;1873137;76;26167;-46
2022/04/09 01:31:17;;;;;;;0.30;0.30;;;;;;;;;;1892171;74;26268;-46
2022/04/09 01:33:44;;;;;;;0.30;0.23;;;;;;;;;;1878802;75;26287;-46
2022/04/09 01:36:14;;;;;;;0.20;0.20;;;;;;;;;;1899856;75;26296;-42
2022/04/09 01:38:41;;;;;;;2.58;0.30;;;;;;;;;;1902182;74;26295;-46
2022/04/09 01:41:08;;;;;;;0.13;0.13;;;;;;;;;;1891989;75;26693;-44
2022/04/09 01:43:38;;;;;;;0.10;0.10;;;;;;;;;;1900210;75;26618;-43
2022/04/09 01:46:05;;;;;;;0.20;0.20;;;;;;;;;;1891089;74;26234;-48
2022/04/09 01:48:32;;;;;;;0.20;0.20;;;;;;;;;;1891775;75;26812;-42
2022/04/09 01:51:00;;;;;;;0.30;0.23;;;;;;;;;;1901670;74;26179;-43
2022/04/09 01:53:27;;;;;;;0.20;0.20;;;;;;;;;;1897314;75;26279;-44
2022/04/09 01:55:54;;;;;;;0.10;0.10;;;;;;;;;;1893250;75;26326;-46
2022/04/09 01:58:22;;;;;;;0.20;0.20;;;;;;;;;;1885255;75;26299;-47
2022/04/09 02:00:51;;;;;;;0.20;0.20;;;;;;;;;;1901273;74;26382;-48
2022/04/09 02:03:18;;;;;;;0.10;0.10;;;;;;;;;;1891940;75;26653;-44
2022/04/09 02:05:46;;;;;;;0.20;0.20;;;;;;;;;;1882228;75;26185;-47
2022/04/09 02:08:14;;;;;;;0.10;0.10;;;;;;;;;;1901245;75;26752;-42
2022/04/09 02:10:41;;;;;;;0.10;0.10;;;;;;;;;;1901438;74;26697;-47
2022/04/09 02:13:12;;;;;;;0.20;0.20;;;;;;;;;;1891559;74;26239;-47
2022/04/09 02:15:40;;;;;;;0.23;0.23;;;;;;;;;;1920658;74;26702;-45
2022/04/09 02:18:07;;;;;;;0.50;0.30;;;;;;;;;;1901105;75;26335;-49
2022/04/09 02:20:35;;;;;;;0.88;0.10;;;;;;;;;;1899710;75;26258;-44
2022/04/09 02:23:02;;;;;;;0.45;0.20;;;;;;;;;;1901054;75;26611;-44
2022/04/09 02:25:29;;;;;;;0.10;0.10;;;;;;;;;;1890245;74;26252;-44
2022/04/09 02:27:56;;;;;;;0.20;0.20;;;;;;;;;;1870023;75;26228;-47
2022/04/09 02:30:24;;;;;;;0.20;0.20;;;;;;;;;;1902230;75;26266;-47
2022/04/09 02:32:52;;;;;;;0.15;0.15;;;;;;;;;;1901846;75;26903;-48
2022/04/09 02:35:22;;;;;;;0.10;0.10;;;;;;;;;;1880488;75;26925;-45
2022/04/09 02:37:49;;;;;;;0.20;0.20;;;;;;;;;;1880976;74;26738;-45
2022/04/09 02:40:17;;;;;;;0.10;0.10;;;;;;;;;;1893933;74;26231;-43
2022/04/09 02:42:46;;;;;;;0.20;0.20;;;;;;;;;;1894328;75;26339;-47
2022/04/09 02:45:13;;;;;;;0.20;0.20;;;;;;;;;;1898901;74;26744;-44
2022/04/09 02:47:40;;;;;;;1.75;0.15;;;;;;;;;;1894349;75;26275;-47
2022/04/09 02:50:08;;;;;;;0.20;0.20;;;;;;;;;;1887559;74;26174;-46
2022/04/09 02:52:40;;;;;;;0.10;0.10;;;;;;;;;;1900146;75;26625;-43
2022/04/09 02:55:08;;;;;;;0.10;0.10;;;;;;;;;;1902328;75;26242;-47
2022/04/09 02:57:37;;;;;;;0.20;0.20;;;;;;;;;;1896597;75;27456;-44
2022/04/09 03:00:05;;;;;;;0.30;0.30;;;;;;;;;;1902546;75;26296;-45
2022/04/09 03:02:34;;;;;;;0.20;0.20;;;;;;;;;;1869818;74;26234;-45
2022/04/09 03:05:03;;;;;;;0.25;0.25;;;;;;;;;;1902239;75;26245;-45
2022/04/09 03:07:31;;;;;;;0.20;0.20;;;;;;;;;;1887781;75;26265;-50
2022/04/09 03:09:58;;;;;;;0.10;0.10;;;;;;;;;;1902307;74;26467;-47
2022/04/09 03:12:25;;;;;;;0.20;0.20;;;;;;;;;;1880652;74;26230;-50
2022/04/09 03:14:52;;;;;;;1.27;0.20;;;;;;;;;;1901650;75;26230;-49
2022/04/09 03:17:20;;;;;;;0.20;0.20;;;;;;;;;;1881150;75;26331;-45
2022/04/09 03:19:47;;;;;;;0.10;0.10;;;;;;;;;;1889028;75;26906;-48
2022/04/09 03:22:14;;;;;;;0.10;0.10;;;;;;;;;;1891218;74;26266;-45
2022/04/09 03:24:41;;;;;;;0.10;0.10;;;;;;;;;;1884227;74;26717;-44
2022/04/09 03:27:09;;;;;;;0.20;0.20;;;;;;;;;;1899240;75;26757;-47
2022/04/09 03:29:36;;;;;;;0.23;0.23;;;;;;;;;;1884959;75;26310;-46
2022/04/09 03:32:04;;;;;;;0.15;0.15;;;;;;;;;;1895609;75;26281;-44
2022/04/09 03:34:31;;;;;;;0.10;0.10;;;;;;;;;;1892804;75;26210;-45
2022/04/09 03:36:58;;;;;;;0.10;0.10;;;;;;;;;;1885361;74;26327;-43
2022/04/09 03:39:26;;;;;;;0.10;0.10;;;;;;;;;;1901367;75;26312;-42
2022/04/09 03:41:54;;;;;;;0.20;0.20;;;;;;;;;;1894462;74;26325;-48
2022/04/09 03:44:21;;;;;;;0.17;0.17;;;;;;;;;;1887791;75;26220;-42
2022/04/09 03:46:48;;;;;;;0.17;0.17;;;;;;;;;;1878904;74;26892;-48
2022/04/09 03:49:15;;;;;;;0.23;0.23;;;;;;;;;;1868502;74;26812;-43
2022/04/09 03:51:43;;;;;;;0.20;0.20;;;;;;;;;;1902533;75;26743;-45
2022/04/09 03:54:10;;;;;;;0.10;0.10;;;;;;;;;;1902379;75;26234;-45
2022/04/09 03:56:40;;;;;;;0.10;0.10;;;;;;;;;;1897791;75;26173;-43
2022/04/09 03:59:06;;;;;;;0.10;0.10;;;;;;;;;;1895359;74;26821;-43
2022/04/09 04:01:33;;;;;;;0.20;0.20;;;;;;;;;;1884826;74;26319;-43
2022/04/09 04:04:01;;;;;;;0.20;0.20;;;;;;;;;;1898273;75;26312;-43
2022/04/09 04:06:29;;;;;;;0.20;0.20;;;;;;;;;;1892130;75;26875;-49
2022/04/09 04:08:56;;;;;;;0.20;0.20;;;;;;;;;;1901711;74;26300;-44
2022/04/09 04:11:24;;;;;;;0.20;0.20;;;;;;;;;;1896705;74;26346;-45
2022/04/09 04:13:51;;;;;;;0.20;0.20;;;;;;;;;;1903208;74;26307;-47
2022/04/09 04:16:18;;;;;;;0.10;0.10;;;;;;;;;;1901047;75;26245;-46
2022/04/09 04:18:46;;;;;;;0.10;0.10;;;;;;;;;;1887557;75;26273;-49
2022/04/09 04:21:15;;;;;;;0.20;0.20;;;;;;;;;;1902181;75;26265;-46
2022/04/09 04:23:42;;;;;;;0.40;0.20;;;;;;;;;;1880224;74;26245;-46
2022/04/09 04:26:09;;;;;;;0.20;0.20;;;;;;;;;;1889560;75;26270;-51
2022/04/09 04:28:37;;;;;;;0.25;0.25;;;;;;;;;;1902493;75;26292;-42
2022/04/09 04:31:04;;;;;;;0.20;0.20;;;;;;;;;;1902910;75;26634;-43
2022/04/09 04:33:33;;;;;;;0.30;0.30;;;;;;;;;;1901813;75;26752;-45
2022/04/09 04:36:00;;;;;;;0.20;0.20;;;;;;;;;;1907743;74;26269;-44
2022/04/09 04:38:28;;;;;;;0.15;0.15;;;;;;;;;;1902709;75;26226;-42
2022/04/09 04:40:55;;;;;;;0.13;0.13;;;;;;;;;;1906023;75;26677;-42
2022/04/09 04:43:23;;;;;;;0.30;0.30;;;;;;;;;;1906265;74;26327;-46
2022/04/09 04:45:50;;;;;;;0.25;0.25;;;;;;;;;;1903925;75;26308;-46
2022/04/09 04:48:20;;;;;;;0.10;0.10;;;;;;;;;;1891603;74;26229;-44
2022/04/09 04:50:47;;;;;;;0.20;0.20;;;;;;;;;;1878634;75;26357;-44
2022/04/09 04:53:14;;;;;;;0.20;0.20;;;;;;;;;;1890975;75;26264;-45
2022/04/09 04:55:41;;;;;;;0.20;0.20;;;;;;;;;;1890203;75;26296;-46
2022/04/09 04:58:08;;;;;;;0.20;0.20;;;;;;;;;;1881688;74;26299;-48
2022/04/09 05:00:36;;;;;;;0.10;0.10;;;;;;;;;;1920833;74;26245;-49
2022/04/09 05:03:03;;;;;;;0.20;0.20;;;;;;;;;;1900611;75;27359;-50
2022/04/09 05:05:30;;;;;;;0.20;0.20;;;;;;;;;;1882952;75;26633;-46
2022/04/09 05:07:57;;;;;;;0.20;0.20;;;;;;;;;;1906168;75;26761;-44
2022/04/09 05:10:27;;;;;;;0.20;0.20;;;;;;;;;;1908766;74;26256;-43
2022/04/09 05:12:54;;;;;;;0.28;0.28;;;;;;;;;;1900225;74;26318;-42
2022/04/09 05:15:22;;;;;;;0.10;0.10;;;;;;;;;;1903867;75;26234;-42
2022/04/09 05:17:49;;;;;;;0.37;0.37;;;;;;;;;;1903755;75;26280;-46
2022/04/09 05:20:17;;;;;;;0.20;0.20;;;;;;;;;;1900905;74;26522;-42
2022/04/09 05:22:46;;;;;;;0.10;0.10;;;;;;;;;;1903213;74;26245;-43
2022/04/09 05:25:16;;;;;;;0.10;0.10;;;;;;;;;;1887113;75;26700;-45
2022/04/09 05:27:43;;;;;;;0.13;0.13;;;;;;;;;;1906443;75;26253;-48
2022/04/09 05:30:11;;;;;;;0.20;0.20;;;;;;;;;;1904513;75;26629;-49
2022/04/09 05:32:39;;;;;;;0.20;0.20;;;;;;;;;;1906248;75;26319;-45
2022/04/09 05:35:07;;;;;;;0.20;0.20;;;;;;;;;;1900669;74;26242;-45
2022/04/09 05:37:35;;;;;;;0.30;0.30;;;;;;;;;;1902737;75;26163;-42
2022/04/09 05:40:05;;;;;;;0.10;0.10;;;;;;;;;;1905960;75;26670;-44
2022/04/09 05:42:32;;;;;;;0.20;0.20;;;;;;;;;;1894823;75;26240;-50
2022/04/09 05:45:00;;;;;;;5.20;0.20;;;;;;;;;;1896972;74;26226;-45
2022/04/09 05:47:27;;;;;;;0.30;0.30;;;;;;;;;;1896714;75;26475;-46
2022/04/09 05:49:56;;;;;;;0.47;0.30;;;;;;;;;;1905639;75;26254;-45
2022/04/09 05:52:24;;;;;;;0.45;0.30;;;;;;;;;;1906014;75;26318;-46
2022/04/09 05:54:51;;;;;;;0.10;0.10;;;;;;;;;;1905390;75;26265;-48
2022/04/09 05:57:18;;;;;;;0.33;0.20;;;;;;;;;;1909441;74;26249;-46
2022/04/09 05:59:46;;;;;;;0.10;0.10;;;;;;;;;;1906401;75;26214;-50
2022/04/09 06:02:13;;;;;;;0.23;0.23;;;;;;;;;;1899850;75;26309;-45
2022/04/09 06:04:40;;;;;;;1.55;0.28;;;;;;;;;;1891796;74;26239;-44
2022/04/09 06:07:09;;;;;;;0.15;0.15;;;;;;;;;;1905804;75;26241;-49
2022/04/09 06:09:37;;;;;;;0.40;0.40;;;;;;;;;;1902320;74;26332;-46
2022/04/09 06:12:06;;;;;;;0.95;0.40;;;;;;;;;;1902557;74;27352;-46
2022/04/09 06:14:34;;;;;;;0.57;0.50;;;;;;;;;;1900416;74;26234;-45
2022/04/09 06:17:01;;;;;;;0.57;0.30;;;;;;;;;;1882267;74;26696;-43
2022/04/09 06:19:29;;;;;;;0.50;0.40;;;;;;;;;;1899518;74;26219;-46
2022/04/09 06:21:57;;;;;;;2.62;0.40;;;;;;;;;;1894549;74;26837;-46
2022/04/09 06:24:24;;;;;;;0.53;0.30;;;;;;;;;;1903277;75;26306;-46
2022/04/09 06:26:51;;;;;;;2.02;0.42;;;;;;;;;;1901068;75;26368;-46
2022/04/09 06:29:19;;;;;;;2.02;0.50;;;;;;;;;;1885982;75;26229;-44
2022/04/09 06:31:47;;;;;;;2.55;0.53;;;;;;;;;;1895629;75;26793;-43
2022/04/09 06:34:15;;;;;;;1.17;0.42;;;;;;;;;;1887540;74;26296;-49
2022/04/09 06:36:42;;;;;;;4.90;0.53;;;;;;;;;;1892901;75;26210;-46
2022/04/09 06:39:10;;;;;;;2.65;0.40;;;;;;;;;;1900923;75;26206;-44
2022/04/09 06:41:37;;;;;;;1.50;0.30;;;;;;;;;;1889394;74;26296;-51
2022/04/09 06:44:06;;;;;;;11.83;0.50;;;;;;;;;;1888852;74;26238;-43
2022/04/09 06:46:33;;;;;;;3.83;0.68;;;;;;;;;;1890749;75;26863;-47
2022/04/09 06:49:01;;;;;;;1.62;0.50;;;;;;;;;;1887931;75;26361;-44
2022/04/09 06:51:28;;;;;;;2.17;0.40;;;;;;;;;;1881822;75;26268;-47
2022/04/09 06:53:56;;;;;;;5.25;0.53;;;;;;;;;;1881823;75;25779;-46
2022/04/09 06:56:23;;;;;;;2.50;0.50;;;;;;;;;;1885616;74;26299;-45
2022/04/09 06:58:51;;;;;;;3.20;0.50;;;;;;;;;;1871582;75;26283;-47
2022/04/09 07:01:18;;;;;;;7.20;1.37;;;;;;;;;;1876806;75;26276;-49
2022/04/09 07:03:45;;;;;;;4.10;0.42;;;;;;;;;;1876685;75;26245;-48
2022/04/09 07:06:15;;;;;;;1.57;0.60;;;;;;;;;;1891787;75;26362;-48
2022/04/09 07:08:41;;;;;;;1.00;0.50;;;;;;;;;;1884904;74;26565;-46
2022/04/09 07:11:09;;;;;;;1.20;0.50;;;;;;;;;;1881138;75;26348;-46
2022/04/09 07:13:36;;;;;;;0.57;0.37;;;;;;;;;;1886361;75;26256;-44
2022/04/09 07:16:04;;;;;;;2.60;0.40;;;;;;;;;;1883308;74;26613;-42
2022/04/09 07:18:32;;;;;;;0.40;0.40;;;;;;;;;;1884038;74;26253;-50
2022/04/09 07:21:01;;;;;;;0.50;0.47;;;;;;;;;;1885416;75;26296;-49
2022/04/09 07:23:29;;;;;;;1.37;0.40;;;;;;;;;;1885931;75;26350;-44
2022/04/09 07:25:56;;;;;;;1.10;0.40;;;;;;;;;;1871106;75;26223;-45
2022/04/09 07:28:23;;;;;;;1.05;0.50;;;;;;;;;;1881716;75;26728;-44
2022/04/09 07:30:51;;;;;;;0.30;0.30;;;;;;;;;;1884025;74;26821;-46
2022/04/09 07:33:18;;;;;;;1.25;0.40;;;;;;;;;;1884959;75;26382;-49
2022/04/09 07:35:45;;;;;;;0.30;0.30;;;;;;;;;;1891974;75;26202;-46
2022/04/09 07:38:13;;;;;;;2.87;0.35;;;;;;;;;;1883189;75;26221;-50
2022/04/09 07:40:40;;;;;;;0.35;0.30;;;;;;;;;;1887827;75;26272;-50
2022/04/09 07:43:07;;;;;;;1.02;0.20;;;;;;;;;;1880030;74;26682;-46
2022/04/09 07:45:34;;;;;;;0.62;0.62;;;;;;;;;;1893265;74;26246;-43
2022/04/09 07:48:02;;;;;;;0.20;0.20;;;;;;;;;;1882327;74;26244;-44
2022/04/09 07:50:29;;;;;;;0.30;0.30;;;;;;;;;;1889167;75;26610;-43
2022/04/09 07:52:57;;;;;;;0.40;0.40;;;;;;;;;;1892372;74;26324;-45
2022/04/09 07:55:24;;;;;;;0.30;0.30;;;;;;;;;;1893299;75;26235;-44
2022/04/09 07:57:52;;;;;;;0.30;0.20;;;;;;;;;;1892870;75;26250;-43
2022/04/09 08:00:20;;;;;;;0.62;0.25;;;;;;;;;;1882772;74;26263;-42
2022/04/09 08:02:48;;;;;;;0.40;0.30;;;;;;;;;;1884394;75;26744;-43
2022/04/09 08:05:18;;;;;;;0.20;0.20;;;;;;;;;;1890943;74;26297;-47
2022/04/09 08:07:45;;;;;;;1.07;0.30;;;;;;;;;;1881749;74;26205;-43
2022/04/09 08:10:13;;;;;;;0.20;0.20;;;;;;;;;;1889201;74;26844;-44
2022/04/09 08:12:41;;;;;;;0.30;0.30;;;;;;;;;;1890738;75;26222;-47
2022/04/09 08:15:09;;;;;;;0.33;0.20;;;;;;;;;;1875371;75;27327;-47
2022/04/09 08:17:40;;;;;;;1.40;0.57;;;;;;;;;;1908696;74;26601;-47
2022/04/09 08:20:08;;;;;;;0.20;0.20;;;;;;;;;;1882546;75;26673;-50
2022/04/09 08:22:36;;;;;;;0.23;0.23;;;;;;;;;;1882864;75;26334;-47
2022/04/09 08:25:04;;;;;;;0.20;0.20;;;;;;;;;;1899498;75;26307;-49
2022/04/09 08:27:31;;;;;;;0.10;0.10;;;;;;;;;;1902173;74;26303;-50
2022/04/09 08:29:58;;;;;;;1.10;0.40;;;;;;;;;;1889225;74;26308;-49
2022/04/09 08:32:25;;;;;;;0.10;0.10;;;;;;;;;;1899848;75;26218;-43
2022/04/09 08:34:53;;;;;;;0.20;0.20;;;;;;;;;;1902845;75;26819;-49
2022/04/09 08:37:22;;;;;;;0.20;0.20;;;;;;;;;;1884934;75;26240;-43
2022/04/09 08:39:50;;;;;;;0.20;0.20;;;;;;;;;;1898125;74;26320;-45
2022/04/09 08:42:18;;;;;;;0.37;0.28;;;;;;;;;;1886183;74;26739;-51
2022/04/09 08:44:45;;;;;;;0.20;0.20;;;;;;;;;;1890035;74;26233;-48
2022/04/09 08:47:14;;;;;;;0.82;0.20;;;;;;;;;;1900671;74;26726;-44
2022/04/09 08:49:43;;;;;;;0.13;0.13;;;;;;;;;;1893392;74;26267;-43
2022/04/09 08:52:11;;;;;;;0.20;0.20;;;;;;;;;;1898093;74;26343;-44
2022/04/09 08:54:38;;;;;;;0.33;0.23;;;;;;;;;;1902428;74;26697;-47
2022/04/09 08:57:06;;;;;;;0.10;0.10;;;;;;;;;;1903635;74;26226;-47
2022/04/09 08:59:33;;;;;;;0.23;0.23;;;;;;;;;;1903128;75;26253;-46
2022/04/09 09:02:00;;;;;;;0.20;0.20;;;;;;;;;;1896178;75;26705;-43
2022/04/09 09:04:28;;;;;;;0.20;0.20;;;;;;;;;;1899117;75;26320;-44
2022/04/09 09:06:55;;;;;;;0.17;0.17;;;;;;;;;;1896479;75;26226;-44
2022/04/09 09:09:31;;;;;;;0.30;0.30;;;;;;;;;;1886742;74;27532;-45
2022/04/09 09:12:00;;;;;;;0.80;0.37;;;;;;;;;;1911608;74;26807;-47
2022/04/09 09:14:36;;;;;;;0.37;0.33;;;;;;;;;;1903959;74;26230;-45
2022/04/09 09:17:01;;;;;;;0.20;0.20;;;;;;;;;;1909869;74;26314;-44
2022/04/09 09:19:42;;;;;;;0.17;0.17;;;;;;;;;;1902289;74;26824;-49
2022/04/09 09:22:09;;;;;;;0.50;0.37;;;;;;;;;;1903941;75;26217;-51
2022/04/09 09:24:36;;;;;;;0.70;0.20;;;;;;;;;;1889639;74;26703;-47
2022/04/09 09:27:04;;;;;;;1.25;0.28;;;;;;;;;;1900674;75;26710;-42
2022/04/09 09:29:33;;;;;;;0.80;0.37;;;;;;;;;;1905256;75;26578;-47
2022/04/09 09:32:01;;;;;;;0.42;0.20;;;;;;;;;;1905023;74;26689;-45
2022/04/09 09:34:29;;;;;;;0.30;0.30;;;;;;;;;;1894247;74;26256;-44
2022/04/09 09:36:56;;;;;;;0.60;0.30;;;;;;;;;;1893108;74;26285;-43
2022/04/09 09:39:25;;;;;;;0.70;0.40;;;;;;;;;;1892316;74;26229;-44
2022/04/09 09:41:54;;;;;;;1.77;0.30;;;;;;;;;;1900793;75;26637;-46
2022/04/09 09:44:22;;;;;;;1.55;0.23;;;;;;;;;;1890957;74;26626;-47
2022/04/09 09:46:51;;;;;;;0.40;0.40;;;;;;;;;;1889584;74;26253;-44
2022/04/09 09:49:19;;;;;;;0.50;0.30;;;;;;;;;;1887813;75;27190;-46
2022/04/09 09:52:03;;;;;;;0.40;0.40;;;;;;;;;;1896067;74;26214;-49
2022/04/09 09:54:30;;;;;;;0.30;0.30;;;;;;;;;;1893165;74;26307;-47
2022/04/09 09:56:57;;;;;;;0.65;0.47;;;;;;;;;;1900703;75;26287;-47
2022/04/09 09:59:27;;;;;;;0.65;0.37;;;;;;;;;;1896565;74;26332;-49
2022/04/09 10:01:57;;;;;;;0.40;0.40;;;;;;;;;;1891231;75;26275;-43
2022/04/09 10:04:24;;;;;;;0.30;0.30;;;;;;;;;;1897680;75;26260;-48
2022/04/09 10:06:51;;;;;;;0.50;0.50;;;;;;;;;;1895970;75;26359;-48
2022/04/09 10:09:19;;;;;;;0.78;0.57;;;;;;;;;;1893184;74;26730;-48
2022/04/09 10:11:50;;;;;;;0.47;0.47;;;;;;;;;;1889685;74;26298;-49
2022/04/09 10:14:22;;;;;;;0.50;0.50;;;;;;;;;;1893145;74;26586;-51
2022/04/09 10:16:51;;;;;;;0.62;0.50;;;;;;;;;;1895164;75;26218;-44
2022/04/09 10:19:19;;;;;;;0.42;0.42;;;;;;;;;;1892148;74;26234;-46
2022/04/09 10:21:48;;;;;;;1.40;0.50;;;;;;;;;;1897902;74;26226;-43
2022/04/09 10:24:18;;;;;;;1.05;0.60;;;;;;;;;;1878347;75;26213;-49
2022/04/09 10:26:46;;;;;;;0.75;0.40;;;;;;;;;;1884833;75;26720;-42
2022/04/09 10:29:13;;;;;;;0.93;0.47;;;;;;;;;;1899476;74;26238;-43
2022/04/09 10:31:43;;;;;;;2.33;0.90;;;;;;;;;;1871102;75;26248;-46
2022/04/09 10:34:16;;;;;;;1.07;0.60;;;;;;;;;;1896595;74;26741;-43
2022/04/09 10:36:43;;;;;;;2.05;1.17;;;;;;;;;;1893922;75;26251;-41
2022/04/09 10:39:29;;;;;;;9.88;0.90;;;;;;;;;;1893058;74;26198;-43
2022/04/09 10:41:56;;;;;;;9.53;0.90;;;;;;;;;;1894522;74;26317;-42
2022/04/09 10:44:25;;;;;;;6.62;0.90;;;;;;;;;;1892452;74;26194;-46
2022/04/09 10:46:52;;;;;;;1.72;0.88;;;;;;;;;;1883292;74;26261;-50
2022/04/09 10:49:21;;;;;;;4.92;0.80;;;;;;;;;;1894994;74;26775;-50
2022/04/09 10:51:52;;;;;;;2.62;0.98;;;;;;;;;;1902054;75;26258;-49
2022/04/09 10:54:21;;;;;;;4.10;0.80;;;;;;;;;;1896200;75;26652;-47
2022/04/09 10:56:49;;;;;;;3.05;0.93;;;;;;;;;;1894197;74;26817;-46
2022/04/09 10:59:17;;;;;;;2.67;0.72;;;;;;;;;;1904455;75;26245;-50
2022/04/09 11:01:46;;;;;;;1.05;0.60;;;;;;;;;;1904654;75;26234;-50
2022/04/09 11:04:34;;;;;;;1.65;0.70;;;;;;;;;;1904270;75;26241;-50
2022/04/09 11:07:12;;;;;;;5.90;0.70;;;;;;;;;;1888725;75;26734;-45
2022/04/09 11:09:58;;;;;;;5.42;0.90;;;;;;;;;;1873739;74;26286;-48
2022/04/09 11:12:27;;;;;;;1.77;0.80;;;;;;;;;;1873723;76;26262;-44
2022/04/09 11:14:56;;;;;;;2.95;1.00;;;;;;;;;;1879929;75;26258;-45
2022/04/09 11:17:24;;;;;;;2.77;0.90;;;;;;;;;;1877556;74;26236;-46
2022/04/09 11:19:52;;;;;;;2.95;0.70;;;;;;;;;;1883996;74;26339;-46
2022/04/09 11:22:20;;;;;;;2.83;0.80;;;;;;;;;;1879136;75;26641;-52
2022/04/09 11:24:47;;;;;;;2.00;0.80;;;;;;;;;;1901795;75;27281;-46
2022/04/09 11:27:15;;;;;;;3.85;0.70;;;;;;;;;;1901198;75;26176;-48
2022/04/09 11:29:43;;;;;;;2.42;0.70;;;;;;;;;;1896609;75;26239;-49
2022/04/09 11:32:18;;;;;;;0.85;0.70;;;;;;;;;;1893210;75;26194;-52
2022/04/09 11:34:50;;;;;;;1.40;0.70;;;;;;;;;;1882260;74;26406;-45
2022/04/09 11:37:17;;;;;;;1.77;0.70;;;;;;;;;;1891456;75;27153;-46
2022/04/09 11:39:45;;;;;;;0.60;0.60;;;;;;;;;;1881408;75;26169;-44
2022/04/09 11:42:13;;;;;;;1.75;0.53;;;;;;;;;;1895491;75;26270;-49
2022/04/09 11:44:40;;;;;;;1.47;0.50;;;;;;;;;;1879196;75;26248;-44
2022/04/09 11:47:09;;;;;;;2.08;1.15;;;;;;;;;;1890561;74;26267;-43
2022/04/09 11:49:36;;;;;;;1.35;0.60;;;;;;;;;;1880532;75;26675;-46
2022/04/09 11:52:05;;;;;;;0.45;0.45;;;;;;;;;;1891485;75;26234;-42
2022/04/09 11:54:33;;;;;;;1.47;0.98;;;;;;;;;;1886298;75;26257;-49
2022/04/09 11:57:04;;;;;;;0.55;0.47;;;;;;;;;;1890284;75;27495;-47
2022/04/09 11:59:31;;;;;;;2.50;0.50;;;;;;;;;;1887061;74;26319;-49
2022/04/09 12:01:59;;;;;;;0.55;0.50;;;;;;;;;;1895436;75;26302;-47
2022/04/09 12:04:27;;;;;;;0.60;0.60;;;;;;;;;;1891308;74;26803;-44
2022/04/09 12:06:55;;;;;;;1.55;0.50;;;;;;;;;;1882568;74;26692;-42
2022/04/09 12:09:23;;;;;;;0.93;0.65;;;;;;;;;;1899496;74;26325;-45
2022/04/09 12:11:53;;;;;;;0.70;0.40;;;;;;;;;;1897017;75;26261;-53
2022/04/09 12:14:21;;;;;;;3.40;0.50;;;;;;;;;;1879140;75;26312;-52
2022/04/09 12:16:48;;;;;;;2.67;0.50;;;;;;;;;;1906512;75;26276;-49
2022/04/09 12:19:15;;;;;;;0.37;0.37;;;;;;;;;;1883922;75;26332;-47
2022/04/09 12:21:43;;;;;;;0.33;0.25;;;;;;;;;;1882471;74;26304;-47
2022/04/09 12:24:13;;;;;;;0.45;0.45;;;;;;;;;;1906349;75;26307;-51
2022/04/09 12:26:42;;;;;;;1.02;0.40;;;;;;;;;;1905916;75;26234;-45
2022/04/09 12:29:29;;;;;;;0.50;0.50;;;;;;;;;;1904704;75;26218;-43
2022/04/09 12:31:51;;;;;;;0.40;0.40;;;;;;;;;;1903547;75;26799;-45
2022/04/09 12:34:18;;;;;;;0.30;0.30;;;;;;;;;;1893515;74;26338;-46
2022/04/09 12:36:59;;;;;;;0.37;0.37;;;;;;;;;;1904355;75;26343;-43
2022/04/09 12:39:27;;;;;;;0.30;0.30;;;;;;;;;;1904785;75;26214;-43
2022/04/09 12:41:55;;;;;;;0.20;0.20;;;;;;;;;;1904021;75;26201;-49
2022/04/09 12:44:29;;;;;;;1.00;0.30;;;;;;;;;;1898623;74;26331;-44
2022/04/09 12:46:57;;;;;;;0.28;0.28;;;;;;;;;;1896418;75;26229;-42
2022/04/09 12:49:28;;;;;;;0.40;0.40;;;;;;;;;;1873385;76;26273;-48
2022/04/09 12:51:56;;;;;;;1.17;0.30;;;;;;;;;;1881808;75;26322;-51
2022/04/09 12:54:23;;;;;;;0.55;0.35;;;;;;;;;;1874067;76;26335;-50
2022/04/09 12:56:50;;;;;;;1.17;0.40;;;;;;;;;;1894737;74;26766;-42
2022/04/09 12:59:18;;;;;;;0.30;0.30;;;;;;;;;;1939464;74;26353;-44
2022/04/09 13:01:46;;;;;;;0.10;0.10;;;;;;;;;;1938811;74;26276;-44
2022/04/09 13:04:13;;;;;;;0.30;0.20;;;;;;;;;;1933877;74;26234;-50
2022/04/09 13:06:40;;;;;;;0.42;0.30;;;;;;;;;;1906148;75;26291;-49
2022/04/09 13:09:11;;;;;;;0.30;0.30;;;;;;;;;;1882739;74;27014;-46
2022/04/09 13:11:39;;;;;;;0.30;0.30;;;;;;;;;;1878935;75;26899;-46
2022/04/09 13:14:06;;;;;;;0.20;0.20;;;;;;;;;;1879392;74;26753;-43
2022/04/09 13:16:34;;;;;;;0.28;0.28;;;;;;;;;;1898371;75;25835;-49
2022/04/09 13:19:02;;;;;;;0.20;0.20;;;;;;;;;;1905322;75;26771;-43
2022/04/09 13:21:30;;;;;;;0.62;0.25;;;;;;;;;;1899561;75;26329;-42
2022/04/09 13:23:57;;;;;;;0.37;0.30;;;;;;;;;;1873962;76;26265;-47
2022/04/09 13:26:24;;;;;;;0.20;0.20;;;;;;;;;;1874122;75;26745;-45
2022/04/09 13:28:52;;;;;;;0.40;0.40;;;;;;;;;;1874106;76;26725;-43
2022/04/09 13:31:20;;;;;;;0.20;0.20;;;;;;;;;;1873900;76;26787;-47
2022/04/09 13:33:48;;;;;;;0.10;0.10;;;;;;;;;;1883349;75;26257;-42
2022/04/09 13:36:15;;;;;;;1.37;0.10;;;;;;;;;;1906355;75;26804;-43
2022/04/09 13:38:42;;;;;;;0.20;0.20;;;;;;;;;;1906541;74;26713;-44
2022/04/09 13:41:13;;;;;;;0.30;0.30;;;;;;;;;;1906411;75;27317;-42
2022/04/09 13:43:38;;;;;;;0.35;0.35;;;;;;;;;;1902085;74;26305;-48
2022/04/09 13:46:06;;;;;;;0.15;0.15;;;;;;;;;;1897770;74;26234;-42
2022/04/09 13:48:33;;;;;;;0.20;0.20;;;;;;;;;;1906426;75;26319;-45
2022/04/09 13:51:00;;;;;;;0.20;0.20;;;;;;;;;;1906316;75;26257;-42
2022/04/09 13:53:28;;;;;;;0.20;0.20;;;;;;;;;;1906713;75;26659;-43
2022/04/09 13:55:55;;;;;;;0.20;0.20;;;;;;;;;;1906492;75;26261;-52
2022/04/09 13:58:22;;;;;;;0.10;0.10;;;;;;;;;;1874036;74;26209;-45
2022/04/09 14:00:49;;;;;;;0.10;0.10;;;;;;;;;;1873976;76;26283;-44
2022/04/09 14:03:17;;;;;;;0.10;0.10;;;;;;;;;;1874253;76;26791;-45
2022/04/09 14:05:44;;;;;;;0.13;0.13;;;;;;;;;;1899201;75;26710;-44
2022/04/09 14:08:11;;;;;;;0.10;0.10;;;;;;;;;;1906408;74;26273;-43
2022/04/09 14:10:39;;;;;;;0.10;0.10;;;;;;;;;;1906218;75;26412;-50
2022/04/09 14:13:06;;;;;;;0.23;0.23;;;;;;;;;;1916560;74;26683;-44
2022/04/09 14:15:34;;;;;;;0.55;0.10;;;;;;;;;;1928155;74;26272;-48
2022/04/09 14:18:01;;;;;;;0.25;0.25;;;;;;;;;;1899620;75;26263;-47
2022/04/09 14:20:29;;;;;;;0.25;0.25;;;;;;;;;;1903390;74;26741;-44
2022/04/09 14:22:56;;;;;;;0.20;0.20;;;;;;;;;;1897665;75;26233;-44
2022/04/09 14:25:23;;;;;;;0.15;0.15;;;;;;;;;;1905197;75;26238;-46
2022/04/09 14:27:51;;;;;;;0.15;0.15;;;;;;;;;;1905824;75;26211;-42
2022/04/09 14:30:18;;;;;;;0.20;0.20;;;;;;;;;;1905618;75;26261;-44
2022/04/09 14:32:45;;;;;;;0.15;0.15;;;;;;;;;;1895898;74;26269;-43
2022/04/09 14:35:15;;;;;;;0.20;0.20;;;;;;;;;;1875020;76;26686;-42
2022/04/09 14:37:41;;;;;;;0.10;0.10;;;;;;;;;;1871128;76;26327;-46
2022/04/09 14:40:09;;;;;;;0.28;0.28;;;;;;;;;;1875025;74;26725;-44
2022/04/09 14:42:37;;;;;;;0.20;0.20;;;;;;;;;;1891232;75;26857;-52
2022/04/09 14:45:06;;;;;;;0.20;0.20;;;;;;;;;;1886113;74;26270;-46
2022/04/09 14:47:34;;;;;;;0.20;0.20;;;;;;;;;;1895530;75;26236;-51